createdAt,value
2023-03-05T00:01:26.254Z,91.36
2023-03-05T00:03:55.894Z,91.31
2023-03-05T00:06:26.508Z,91.25
2023-03-05T00:08:55.026Z,91.26
2023-03-05T00:11:22.989Z,91.36
2023-03-05T00:13:53.516Z,91.74
2023-03-05T00:16:22.376Z,91.88
2023-03-05T00:18:49.909Z,91.72
2023-03-05T00:21:26.176Z,92.33
2023-03-05T00:23:54.355Z,92.38
2023-03-05T00:26:24.671Z,92.05
2023-03-05T00:28:52.567Z,92.93
2023-03-05T00:31:22.105Z,93.13
2023-03-05T00:33:54.062Z,92.23
2023-03-05T00:36:21.633Z,92.79
2023-03-05T00:38:49.976Z,92.87
2023-03-05T00:41:17.508Z,92.69
2023-03-05T00:43:44.890Z,92.87
2023-03-05T00:46:12.284Z,93.23
2023-03-05T00:48:39.611Z,93.90
2023-03-05T00:51:07.128Z,94.77
2023-03-05T00:53:34.651Z,95.31
2023-03-05T00:56:01.975Z,96.77
2023-03-05T00:58:29.864Z,96.96
2023-03-05T01:00:59.544Z,98.96
2023-03-05T01:03:27.327Z,99.38
2023-03-05T01:05:56.346Z,100.00
2023-03-05T01:08:24.363Z,99.07
2023-03-05T01:10:52.217Z,98.92
2023-03-05T01:13:20.164Z,99.41
2023-03-05T01:15:48.704Z,99.32
2023-03-05T01:18:17.280Z,99.50
2023-03-05T01:20:44.666Z,99.29
2023-03-05T01:23:12.274Z,98.96
2023-03-05T01:25:41.338Z,98.18
2023-03-05T01:28:09.250Z,99.36
2023-03-05T01:30:36.848Z,99.48
2023-03-05T01:33:04.196Z,98.69
2023-03-05T01:35:31.661Z,98.08
2023-03-05T01:37:58.979Z,97.57
2023-03-05T01:40:29.654Z,99.83
2023-03-05T01:43:01.090Z,100.00
2023-03-05T01:45:32.633Z,100.00
2023-03-05T01:48:00.713Z,99.67
2023-03-05T01:50:29.237Z,100.00
2023-03-05T01:53:03.928Z,100.00
2023-03-05T01:55:33.997Z,100.00
2023-03-05T01:58:12.835Z,100.00
2023-03-05T02:00:46.990Z,100.00
2023-03-05T02:03:14.484Z,100.00
2023-03-05T02:05:46.107Z,100.00
2023-03-05T02:08:16.600Z,100.00
2023-03-05T02:10:48.065Z,100.00
2023-03-05T02:13:21.374Z,100.00
2023-03-05T02:15:49.899Z,100.00
2023-03-05T02:18:18.798Z,100.00
2023-03-05T02:21:12.336Z,100.00
2023-03-05T02:23:40.197Z,100.00
2023-03-05T02:26:10.871Z,100.00
2023-03-05T02:28:47.392Z,100.00
2023-03-05T02:31:23.068Z,100.00
2023-03-05T02:33:51.307Z,100.00
2023-03-05T02:36:20.297Z,100.00
2023-03-05T02:38:47.848Z,99.98
2023-03-05T02:41:15.739Z,99.58
2023-03-05T02:43:43.493Z,98.81
2023-03-05T02:46:11.486Z,98.36
2023-03-05T02:48:39.978Z,97.58
2023-03-05T02:51:09.381Z,97.31
2023-03-05T02:53:36.676Z,97.39
2023-03-05T02:56:04.581Z,97.07
2023-03-05T02:58:34.524Z,98.17
2023-03-05T03:01:03.998Z,98.70
2023-03-05T03:03:31.491Z,98.18
2023-03-05T03:05:59.713Z,97.48
2023-03-05T03:08:27.187Z,96.89
2023-03-05T03:10:56.430Z,96.33
2023-03-05T03:13:25.197Z,96.65
2023-03-05T03:16:02.438Z,96.94
2023-03-05T03:18:29.801Z,96.91
2023-03-05T03:20:57.118Z,97.29
2023-03-05T03:23:24.433Z,97.31
2023-03-05T03:25:52.051Z,96.85
2023-03-05T03:28:19.348Z,96.53
2023-03-05T03:30:46.705Z,97.32
2023-03-05T03:33:14.090Z,97.75
2023-03-05T03:35:45.306Z,97.40
2023-03-05T03:38:13.871Z,97.88
2023-03-05T03:40:42.164Z,96.10
2023-03-05T03:43:09.476Z,96.27
2023-03-05T03:45:40.894Z,96.19
2023-03-05T03:48:08.181Z,96.06
2023-03-05T03:50:40.677Z,95.60
2023-03-05T03:53:09.093Z,95.11
2023-03-05T03:55:36.453Z,95.28
2023-03-05T03:58:04.161Z,95.06
2023-03-05T04:00:31.705Z,94.66
2023-03-05T04:02:59.021Z,96.29
2023-03-05T04:05:26.445Z,94.81
2023-03-05T04:07:53.782Z,95.33
2023-03-05T04:10:21.129Z,95.65
2023-03-05T04:12:48.402Z,96.04
2023-03-05T04:15:15.808Z,96.55
2023-03-05T04:17:43.217Z,96.26
2023-03-05T04:20:11.192Z,97.10
2023-03-05T04:22:38.468Z,96.98
2023-03-05T04:25:06.616Z,97.11
2023-03-05T04:27:36.100Z,97.49
2023-03-05T04:30:04.454Z,97.89
2023-03-05T04:32:32.348Z,98.37
2023-03-05T04:34:59.683Z,97.65
2023-03-05T04:37:27.343Z,98.18
2023-03-05T04:39:54.745Z,98.72
2023-03-05T04:42:22.067Z,98.12
2023-03-05T04:44:50.211Z,98.31
2023-03-05T04:47:18.923Z,97.89
2023-03-05T04:49:46.301Z,98.04
2023-03-05T04:52:14.331Z,98.69
2023-03-05T04:54:44.036Z,98.43
2023-03-05T04:57:11.430Z,100.00
2023-03-05T04:59:38.850Z,100.00
2023-03-05T05:02:06.470Z,100.00
2023-03-05T05:04:35.592Z,100.00
2023-03-05T05:07:05.754Z,100.00
2023-03-05T05:09:33.408Z,100.00
2023-03-05T05:12:00.659Z,100.00
2023-03-05T05:14:28.026Z,100.00
2023-03-05T05:16:55.307Z,100.00
2023-03-05T05:19:22.972Z,100.00
2023-03-05T05:21:50.276Z,100.00
2023-03-05T05:24:17.614Z,100.00
2023-03-05T05:26:44.925Z,100.00
2023-03-05T05:29:12.313Z,100.00
2023-03-05T05:31:39.956Z,100.00
2023-03-05T05:34:07.336Z,100.00
2023-03-05T05:36:34.630Z,100.00
2023-03-05T05:39:02.032Z,100.00
2023-03-05T05:41:29.524Z,100.00
2023-03-05T05:43:57.054Z,100.00
2023-03-05T05:46:25.813Z,100.00
2023-03-05T05:48:53.180Z,100.00
2023-03-05T05:51:22.171Z,100.00
2023-03-05T05:53:50.124Z,100.00
2023-03-05T05:56:20.436Z,100.00
2023-03-05T05:58:48.437Z,100.00
2023-03-05T06:01:28.436Z,100.00
2023-03-05T06:03:56.477Z,100.00
2023-03-05T06:06:26.283Z,100.00
2023-03-05T06:08:54.365Z,100.00
2023-03-05T06:11:22.363Z,100.00
2023-03-05T06:13:50.211Z,100.00
2023-03-05T06:16:24.008Z,100.00
2023-03-05T06:18:52.629Z,100.00
2023-03-05T06:21:21.209Z,100.00
2023-03-05T06:23:50.856Z,100.00
2023-03-05T06:26:20.929Z,99.99
2023-03-05T06:28:48.359Z,95.41
2023-03-05T06:31:26.099Z,91.55
2023-03-05T06:34:03.004Z,87.14
2023-03-05T06:36:30.576Z,85.03
2023-03-05T06:38:59.127Z,83.79
2023-03-05T06:41:29.704Z,80.72
2023-03-05T06:43:58.999Z,79.91
2023-03-05T06:46:29.697Z,80.25
2023-03-05T06:48:59.644Z,75.87
2023-03-05T06:51:35.449Z,77.04
2023-03-05T06:54:08.764Z,76.92
2023-03-05T06:56:37.361Z,73.66
2023-03-05T06:59:05.590Z,73.53
2023-03-05T07:01:33.429Z,72.29
2023-03-05T07:04:03.009Z,71.67
2023-03-05T07:06:35.659Z,71.06
2023-03-05T07:09:04.175Z,71.70
2023-03-05T07:11:31.660Z,71.89
2023-03-05T07:13:59.953Z,70.52
2023-03-05T07:16:30.462Z,70.95
2023-03-05T07:18:59.465Z,70.07
2023-03-05T07:21:28.767Z,69.55
2023-03-05T07:23:59.748Z,71.24
2023-03-05T07:26:27.738Z,74.35
2023-03-05T07:28:59.508Z,73.43
2023-03-05T07:31:30.874Z,71.82
2023-03-05T07:34:00.471Z,69.96
2023-03-05T07:36:28.006Z,67.18
2023-03-05T07:38:55.417Z,66.39
2023-03-05T07:41:23.783Z,65.32
2023-03-05T07:43:53.180Z,64.91
2023-03-05T07:46:23.761Z,62.89
2023-03-05T07:48:51.321Z,60.57
2023-03-05T07:51:20.208Z,59.69
2023-03-05T07:53:49.602Z,57.58
2023-03-05T07:56:24.774Z,54.64
2023-03-05T07:58:55.072Z,54.96
2023-03-05T08:01:22.620Z,53.99
2023-03-05T08:03:50.115Z,52.06
2023-03-05T08:06:17.690Z,51.35
2023-03-05T08:08:45.030Z,47.94
2023-03-05T08:11:15.654Z,48.38
2023-03-05T08:13:44.579Z,46.84
2023-03-05T08:16:17.647Z,45.68
2023-03-05T08:18:45.617Z,45.94
2023-03-05T08:21:33.846Z,44.38
2023-03-05T08:24:06.883Z,44.93
2023-03-05T08:26:38.434Z,45.00
2023-03-05T08:29:07.477Z,44.25
2023-03-05T08:31:34.966Z,43.71
2023-03-05T08:34:03.830Z,43.23
2023-03-05T08:36:31.601Z,41.31
2023-03-05T08:38:59.717Z,40.93
2023-03-05T08:41:27.724Z,41.19
2023-03-05T08:43:55.387Z,40.22
2023-03-05T08:46:22.694Z,40.84
2023-03-05T08:48:50.192Z,40.51
2023-03-05T08:51:22.206Z,40.99
2023-03-05T08:53:49.646Z,39.64
2023-03-05T08:56:16.949Z,40.73
2023-03-05T08:58:46.088Z,40.55
2023-03-05T09:01:13.961Z,41.80
2023-03-05T09:03:44.186Z,42.86
2023-03-05T09:06:14.899Z,43.57
2023-03-05T09:08:42.324Z,42.65
2023-03-05T09:11:12.464Z,41.13
2023-03-05T09:13:40.139Z,40.42
2023-03-05T09:16:11.672Z,40.19
2023-03-05T09:18:40.221Z,40.39
2023-03-05T09:21:09.394Z,39.88
2023-03-05T09:23:37.845Z,38.60
2023-03-05T09:26:06.738Z,39.02
2023-03-05T09:28:34.040Z,40.77
2023-03-05T09:31:06.381Z,38.79
2023-03-05T09:33:36.669Z,40.58
2023-03-05T09:36:05.763Z,40.79
2023-03-05T09:38:33.136Z,40.36
2023-03-05T09:41:16.976Z,41.68
2023-03-05T09:43:56.733Z,40.16
2023-03-05T09:46:44.991Z,39.71
2023-03-05T09:49:38.236Z,39.28
2023-03-05T09:52:22.758Z,40.91
2023-03-05T09:54:55.361Z,39.43
2023-03-05T09:57:31.049Z,40.56
2023-03-05T10:00:07.830Z,40.80
2023-03-05T10:02:50.446Z,40.78
2023-03-05T10:05:17.695Z,39.07
2023-03-05T10:07:55.592Z,38.51
2023-03-05T10:10:44.577Z,39.44
2023-03-05T10:13:26.799Z,40.32
2023-03-05T10:16:16.774Z,39.75
2023-03-05T10:18:56.969Z,39.33
2023-03-05T10:21:46.407Z,37.15
2023-03-05T10:24:37.200Z,37.80
2023-03-05T10:27:09.165Z,38.73
2023-03-05T10:30:01.489Z,40.67
2023-03-05T10:32:28.626Z,41.52
2023-03-05T10:35:11.147Z,42.22
2023-03-05T10:37:54.943Z,42.27
2023-03-05T10:40:32.555Z,42.05
2023-03-05T10:43:57.201Z,43.27
2023-03-05T10:46:35.446Z,43.55
2023-03-05T10:49:23.006Z,45.18
2023-03-05T10:52:04.087Z,42.15
2023-03-05T10:54:33.727Z,43.76
2023-03-05T10:57:05.021Z,42.78
2023-03-05T10:59:32.633Z,43.48
2023-03-05T11:02:06.236Z,43.08
2023-03-05T11:04:39.074Z,43.27
2023-03-05T11:07:13.458Z,43.95
2023-03-05T11:09:42.225Z,45.22
2023-03-05T11:12:19.453Z,45.47
2023-03-05T11:15:04.752Z,44.96
2023-03-05T11:18:07.646Z,44.02
2023-03-05T11:20:36.524Z,44.13
2023-03-05T11:23:08.927Z,44.64
2023-03-05T11:25:59.119Z,43.75
2023-03-05T11:28:39.893Z,42.91
2023-03-05T11:31:16.332Z,44.19
2023-03-05T11:34:04.559Z,45.71
2023-03-05T11:36:37.221Z,45.33
2023-03-05T11:39:07.603Z,46.13
2023-03-05T11:41:43.153Z,46.34
2023-03-05T11:44:17.620Z,45.67
2023-03-05T11:46:48.661Z,46.84
2023-03-05T11:49:28.705Z,45.92
2023-03-05T11:52:31.111Z,46.96
2023-03-05T11:55:04.505Z,46.28
2023-03-05T11:57:41.693Z,45.02
2023-03-05T12:00:15.757Z,46.75
2023-03-05T12:02:43.823Z,46.76
2023-03-05T12:05:15.845Z,49.18
2023-03-05T12:07:47.184Z,47.24
2023-03-05T12:10:20.345Z,44.49
2023-03-05T12:13:13.511Z,45.95
2023-03-05T12:16:05.658Z,47.32
2023-03-05T12:18:35.828Z,47.47
2023-03-05T12:21:14.525Z,46.91
2023-03-05T12:23:54.336Z,45.16
2023-03-05T12:27:05.971Z,45.74
2023-03-05T12:29:33.350Z,43.28
2023-03-05T12:32:01.972Z,44.08
2023-03-05T12:34:41.825Z,46.34
2023-03-05T12:37:31.925Z,46.83
2023-03-05T12:40:00.819Z,47.28
2023-03-05T12:42:28.076Z,44.63
2023-03-05T12:45:14.508Z,44.49
2023-03-05T12:47:46.397Z,44.19
2023-03-05T12:50:39.950Z,46.31
2023-03-05T12:53:07.267Z,45.57
2023-03-05T12:55:35.413Z,45.79
2023-03-05T12:58:39.833Z,47.01
2023-03-05T13:01:31.634Z,47.53
2023-03-05T13:04:10.649Z,47.64
2023-03-05T13:06:39.357Z,47.17
2023-03-05T13:09:18.534Z,47.06
2023-03-05T13:11:50.002Z,45.81
2023-03-05T13:14:26.413Z,46.00
2023-03-05T13:16:53.751Z,46.59
2023-03-05T13:19:21.529Z,47.14
2023-03-05T13:22:09.712Z,46.56
2023-03-05T13:24:37.147Z,47.45
2023-03-05T13:27:20.146Z,45.25
2023-03-05T13:29:52.616Z,45.58
2023-03-05T13:32:30.007Z,46.94
2023-03-05T13:35:00.337Z,45.18
2023-03-05T13:37:33.039Z,46.53
2023-03-05T13:40:26.094Z,45.49
2023-03-05T13:42:53.515Z,46.30
2023-03-05T13:45:22.619Z,47.17
2023-03-05T13:48:19.069Z,46.71
2023-03-05T13:50:46.442Z,45.82
2023-03-05T13:53:24.750Z,45.06
2023-03-05T13:55:56.848Z,45.77
2023-03-05T13:58:44.352Z,46.70
2023-03-05T14:01:26.868Z,46.46
2023-03-05T14:04:02.140Z,47.03
2023-03-05T14:06:31.062Z,47.18
2023-03-05T14:09:04.618Z,44.37
2023-03-05T14:11:32.176Z,45.64
2023-03-05T14:16:55.545Z,46.42
2023-03-05T14:19:40.813Z,46.93
2023-03-05T14:22:36.378Z,47.42
2023-03-05T14:25:05.994Z,47.49
2023-03-05T14:27:37.272Z,47.49
2023-03-05T14:30:05.834Z,47.64
2023-03-05T14:32:36.032Z,46.62
2023-03-05T14:35:05.871Z,46.93
2023-03-05T14:37:42.128Z,48.10
2023-03-05T14:40:12.555Z,47.73
2023-03-05T14:42:56.010Z,48.18
2023-03-05T14:45:26.428Z,49.40
2023-03-05T14:47:55.792Z,49.44
2023-03-05T14:50:26.759Z,48.61
2023-03-05T14:53:00.292Z,48.61
2023-03-05T14:55:31.850Z,49.26
2023-03-05T14:58:21.888Z,49.53
2023-03-05T15:00:51.066Z,48.96
2023-03-05T15:03:20.377Z,49.29
2023-03-05T15:05:51.810Z,49.47
2023-03-05T15:08:25.091Z,49.49
2023-03-05T15:10:53.226Z,49.51
2023-03-05T15:13:20.750Z,50.10
2023-03-05T15:15:49.817Z,48.82
2023-03-05T15:18:22.715Z,49.92
2023-03-05T15:20:53.021Z,50.62
2023-03-05T15:23:20.533Z,51.45
2023-03-05T15:25:47.887Z,51.54
2023-03-05T15:28:18.385Z,51.43
2023-03-05T15:30:47.330Z,52.12
2023-03-05T15:33:17.075Z,51.95
2023-03-05T15:35:45.012Z,52.59
2023-03-05T15:38:12.522Z,52.29
2023-03-05T15:40:39.826Z,54.04
2023-03-05T15:43:07.143Z,52.50
2023-03-05T15:45:34.417Z,52.38
2023-03-05T15:48:01.927Z,51.78
2023-03-05T15:50:29.262Z,53.10
2023-03-05T15:52:57.943Z,53.75
2023-03-05T15:55:25.399Z,54.23
2023-03-05T15:57:53.928Z,53.86
2023-03-05T16:00:29.285Z,54.80
2023-03-05T16:02:56.631Z,55.18
2023-03-05T16:05:24.208Z,55.54
2023-03-05T16:07:53.313Z,56.56
2023-03-05T16:10:25.261Z,55.35
2023-03-05T16:12:55.121Z,56.93
2023-03-05T16:15:22.795Z,59.04
2023-03-05T16:17:54.776Z,59.72
2023-03-05T16:20:22.668Z,58.08
2023-03-05T16:22:50.945Z,59.51
2023-03-05T16:25:18.334Z,61.68
2023-03-05T16:27:45.779Z,61.06
2023-03-05T16:30:15.365Z,60.43
2023-03-05T16:32:43.538Z,61.92
2023-03-05T16:35:12.453Z,62.79
2023-03-05T16:37:44.040Z,63.95
2023-03-05T16:40:12.418Z,63.69
2023-03-05T16:42:39.894Z,66.10
2023-03-05T16:45:08.814Z,66.64
2023-03-05T16:47:36.184Z,68.07
2023-03-05T16:50:04.077Z,66.43
2023-03-05T16:52:31.765Z,65.21
2023-03-05T16:54:59.207Z,65.28
2023-03-05T16:57:28.882Z,67.35
2023-03-05T16:59:57.156Z,68.56
2023-03-05T17:02:24.524Z,67.01
2023-03-05T17:04:51.845Z,67.86
2023-03-05T17:07:19.300Z,68.58
2023-03-05T17:09:48.020Z,68.48
2023-03-05T17:12:15.406Z,68.13
2023-03-05T17:14:42.889Z,68.87
2023-03-05T17:17:10.758Z,69.15
2023-03-05T17:19:38.200Z,68.24
2023-03-05T17:22:05.891Z,69.19
2023-03-05T17:24:33.348Z,70.08
2023-03-05T17:27:01.059Z,71.81
2023-03-05T17:29:29.508Z,72.77
2023-03-05T17:31:56.945Z,72.80
2023-03-05T17:34:35.727Z,72.75
2023-03-05T17:37:05.183Z,73.59
2023-03-05T17:39:32.995Z,72.83
2023-03-05T17:42:01.258Z,72.71
2023-03-05T17:44:29.002Z,72.43
2023-03-05T17:46:56.431Z,72.89
2023-03-05T17:49:23.790Z,73.58
2023-03-05T17:51:51.175Z,73.59
2023-03-05T17:54:18.838Z,73.53
2023-03-05T17:56:48.060Z,73.05
2023-03-05T17:59:16.541Z,73.47
2023-03-05T18:01:43.949Z,74.35
2023-03-05T18:04:11.467Z,74.09
2023-03-05T18:06:40.099Z,73.73
2023-03-05T18:09:07.786Z,74.24
2023-03-05T18:11:39.290Z,74.11
2023-03-05T18:14:10.909Z,74.16
2023-03-05T18:16:39.246Z,74.86
2023-03-05T18:19:08.096Z,74.89
2023-03-05T18:21:35.420Z,75.10
2023-03-05T18:24:03.748Z,74.78
2023-03-05T18:26:31.336Z,75.02
2023-03-05T18:28:58.737Z,76.30
2023-03-05T18:31:27.302Z,76.65
2023-03-05T18:33:54.704Z,76.81
2023-03-05T18:36:22.251Z,77.09
2023-03-05T18:38:49.524Z,77.08
2023-03-05T18:41:21.071Z,76.79
2023-03-05T18:43:48.712Z,77.14
2023-03-05T18:46:16.991Z,76.81
2023-03-05T18:48:44.333Z,77.22
2023-03-05T18:51:19.153Z,76.74
2023-03-05T18:53:46.500Z,76.97
2023-03-05T18:56:14.163Z,76.55
2023-03-05T18:58:41.531Z,77.18
2023-03-05T19:01:11.820Z,76.35
2023-03-05T19:03:39.289Z,76.67
2023-03-05T19:06:07.715Z,76.99
2023-03-05T19:08:35.846Z,76.96
2023-03-05T19:11:03.517Z,76.96
2023-03-05T19:13:40.399Z,77.10
2023-03-05T19:16:17.755Z,76.80
2023-03-05T19:19:20.388Z,77.02
2023-03-05T19:21:59.718Z,76.72
2023-03-05T19:24:30.671Z,75.75
2023-03-05T19:27:01.069Z,76.25
2023-03-05T19:29:33.075Z,76.72
2023-03-05T19:32:00.494Z,76.56
2023-03-05T19:34:27.733Z,76.70
2023-03-05T19:36:55.059Z,76.18
2023-03-05T19:39:22.368Z,75.78
2023-03-05T19:41:49.693Z,75.97
2023-03-05T19:44:19.328Z,75.30
2023-03-05T19:46:48.530Z,74.83
2023-03-05T19:49:18.242Z,72.45
2023-03-05T19:51:46.362Z,74.15
2023-03-05T19:54:17.871Z,75.61
2023-03-05T19:56:46.447Z,76.29
2023-03-05T19:59:17.570Z,77.20
2023-03-05T20:01:45.895Z,78.24
2023-03-05T20:04:15.899Z,79.07
2023-03-05T20:06:43.391Z,79.57
2023-03-05T20:09:11.117Z,79.58
2023-03-05T20:11:39.043Z,79.42
2023-03-05T20:14:07.083Z,79.70
2023-03-05T20:16:36.381Z,79.47
2023-03-05T20:19:06.580Z,79.43
2023-03-05T20:21:40.160Z,79.91
2023-03-05T20:24:11.298Z,80.63
2023-03-05T20:26:40.517Z,82.33
2023-03-05T20:29:08.589Z,82.07
2023-03-05T20:31:37.173Z,82.42
2023-03-05T20:34:06.568Z,83.10
2023-03-05T20:36:34.816Z,82.44
2023-03-05T20:39:03.325Z,82.52
2023-03-05T20:41:32.025Z,82.02
2023-03-05T20:43:59.437Z,82.40
2023-03-05T20:46:30.068Z,83.42
2023-03-05T20:49:02.531Z,83.13
2023-03-05T20:51:36.010Z,82.63
2023-03-05T20:54:07.223Z,83.07
2023-03-05T20:56:35.614Z,83.47
2023-03-05T20:59:07.529Z,84.17
2023-03-05T21:01:37.394Z,84.50
2023-03-05T21:04:04.938Z,84.79
2023-03-05T21:06:33.057Z,85.93
2023-03-05T21:09:00.848Z,84.34
2023-03-05T21:11:28.589Z,85.12
2023-03-05T21:14:14.189Z,84.96
2023-03-05T21:16:41.554Z,84.98
2023-03-05T21:19:08.970Z,85.57
2023-03-05T21:21:36.312Z,85.22
2023-03-05T21:24:03.750Z,84.59
2023-03-05T21:26:31.106Z,84.74
2023-03-05T21:28:58.375Z,85.70
2023-03-05T21:31:25.818Z,86.80
2023-03-05T21:33:54.226Z,87.48
2023-03-05T21:36:21.808Z,85.51
2023-03-05T21:38:49.566Z,86.18
2023-03-05T21:41:18.257Z,85.21
2023-03-05T21:43:45.692Z,85.62
2023-03-05T21:46:13.131Z,86.75
2023-03-05T21:48:40.589Z,86.29
2023-03-05T21:51:40.700Z,86.55
2023-03-05T21:54:19.831Z,85.99
2023-03-05T21:56:47.456Z,85.29
2023-03-05T21:59:14.794Z,85.92
2023-03-05T22:01:44.811Z,84.33
2023-03-05T22:04:12.230Z,83.61
2023-03-05T22:06:39.572Z,82.96
2023-03-05T22:09:06.849Z,83.03
2023-03-05T22:11:34.189Z,83.91
2023-03-05T22:14:01.540Z,86.34
2023-03-05T22:16:29.321Z,86.23
2023-03-05T22:18:56.721Z,86.52
2023-03-05T22:21:28.734Z,85.98
2023-03-05T22:23:59.554Z,84.98
2023-03-05T22:26:35.422Z,84.66
2023-03-05T22:29:02.770Z,83.99
2023-03-05T22:31:30.540Z,83.81
2023-03-05T22:33:58.068Z,82.73
2023-03-05T22:36:25.561Z,83.71
2023-03-05T22:38:53.001Z,84.87
2023-03-05T22:41:21.424Z,86.38
2023-03-05T22:43:49.750Z,86.72
2023-03-05T22:46:26.149Z,85.94
2023-03-05T22:48:53.971Z,85.49
2023-03-05T22:51:21.484Z,85.53
2023-03-05T22:53:48.775Z,86.39
2023-03-05T22:56:19.459Z,86.96
2023-03-05T22:58:46.872Z,87.34
2023-03-05T23:01:22.489Z,87.52
2023-03-05T23:04:38.929Z,88.20
2023-03-05T23:07:09.577Z,88.13
2023-03-05T23:09:36.932Z,88.17
2023-03-05T23:12:04.607Z,87.52
2023-03-05T23:14:32.046Z,87.50
2023-03-05T23:16:59.553Z,88.97
2023-03-05T23:19:29.247Z,89.74
2023-03-05T23:21:56.632Z,89.49
2023-03-05T23:24:23.861Z,89.20
2023-03-05T23:26:51.174Z,89.71
2023-03-05T23:29:24.969Z,90.46
2023-03-05T23:32:04.432Z,90.61
2023-03-05T23:34:34.596Z,90.45
2023-03-05T23:37:02.121Z,89.77
2023-03-05T23:39:29.472Z,90.69
2023-03-05T23:41:56.789Z,90.88
2023-03-05T23:44:24.042Z,90.56
2023-03-05T23:46:51.396Z,90.50
2023-03-05T23:49:18.703Z,90.92
2023-03-05T23:51:46.057Z,90.38
2023-03-05T23:54:13.309Z,91.05
2023-03-05T23:56:43.460Z,91.56
2023-03-05T23:59:10.823Z,91.96
